Time;durP1;ratioP1;P1;durP2;ratioP2;P2;SDS_P1;SDS_P2;PMS_P1;PMS_P2;Temp;Humidity;BMP_temperature;BMP_pressure;BME280_temperature;BME280_humidity;BME280_pressure;Samples;Min_cycle;Max_cycle;Signal;HPM_P1;HPM_P2
2022/03/26 00:01:40;;;;;;;36.13;21.73;;;;;;;11.15;42.38;99895.88;4142022;28;20263;-66
2022/03/26 00:03:42;;;;;;;29.70;21.77;;;;;;;11.50;41.75;99883.38;4148605;28;20240;-66
2022/03/26 00:05:44;;;;;;;35.20;21.57;;;;;;;11.32;41.78;99900.28;4138189;28;20233;-67
2022/03/26 00:07:46;;;;;;;35.37;22.83;;;;;;;11.45;41.49;99896.34;4143553;28;20233;-67
2022/03/26 00:09:47;;;;;;;33.60;21.07;;;;;;;11.37;41.63;99902.47;4151069;28;20236;-66
2022/03/26 00:11:49;;;;;;;32.30;22.00;;;;;;;11.78;40.94;99883.97;4145645;28;20725;-66
2022/03/26 00:13:51;;;;;;;35.03;21.80;;;;;;;11.69;40.73;99909.72;4144807;28;20257;-66
2022/03/26 00:15:52;;;;;;;33.37;21.20;;;;;;;11.30;41.96;99891.63;4148049;28;20261;-66
2022/03/26 00:17:55;;;;;;;37.30;22.20;;;;;;;11.61;41.07;99899.06;4151175;28;20248;-66
2022/03/26 00:19:57;;;;;;;32.40;20.90;;;;;;;11.50;41.42;99900.19;4158540;28;20324;-66
2022/03/26 00:21:58;;;;;;;32.53;21.30;;;;;;;11.34;41.69;99902.78;4149311;28;20257;-66
2022/03/26 00:24:00;;;;;;;36.87;21.47;;;;;;;11.47;41.33;99927.13;4142342;28;20251;-66
2022/03/26 00:26:02;;;;;;;33.03;21.53;;;;;;;11.46;41.60;99914.84;4143535;28;20298;-66
2022/03/26 00:28:03;;;;;;;32.90;22.17;;;;;;;11.32;41.92;99918.91;4135478;28;20681;-66
2022/03/26 00:30:06;;;;;;;34.20;22.27;;;;;;;11.44;41.69;99913.31;4143792;28;20264;-66
2022/03/26 00:32:08;;;;;;;33.00;21.73;;;;;;;11.30;41.76;99909.44;4143582;28;20259;-66
2022/03/26 00:34:10;;;;;;;39.30;20.97;;;;;;;11.46;41.50;99916.66;4141315;28;20240;-66
2022/03/26 00:36:12;;;;;;;35.30;20.17;;;;;;;11.09;42.10;99918.66;4143279;28;20253;-67
2022/03/26 00:38:14;;;;;;;32.13;21.97;;;;;;;11.28;41.81;99904.28;4143865;28;20586;-67
2022/03/26 00:40:15;;;;;;;33.00;22.17;;;;;;;11.00;42.08;99916.94;4143058;28;20280;-68
2022/03/26 00:42:17;;;;;;;32.77;20.67;;;;;;;11.50;41.44;99912.69;4141332;28;20267;-67
2022/03/26 00:44:20;;;;;;;34.73;22.07;;;;;;;11.37;41.44;99921.09;4144931;28;20264;-67
2022/03/26 00:46:22;;;;;;;29.43;20.77;;;;;;;11.29;41.58;99921.06;4142806;28;20245;-67
2022/03/26 00:48:24;;;;;;;34.87;22.20;;;;;;;11.16;41.79;99921.53;4142626;28;20237;-67
2022/03/26 00:50:26;;;;;;;31.20;21.50;;;;;;;11.24;41.88;99916.25;4143704;28;20439;-67
2022/03/26 00:52:28;;;;;;;28.13;21.07;;;;;;;11.10;42.03;99911.50;4143358;28;20874;-67
2022/03/26 00:54:30;;;;;;;31.40;21.40;;;;;;;11.04;41.92;99915.63;4142420;28;20493;-67
2022/03/26 00:56:32;;;;;;;31.33;21.60;;;;;;;10.90;42.47;99903.75;4142907;28;20303;-67
2022/03/26 00:58:34;;;;;;;30.30;21.33;;;;;;;11.09;42.00;99902.69;4143398;28;20733;-67
2022/03/26 01:00:35;;;;;;;29.60;19.93;;;;;;;10.49;43.03;99922.03;4143174;28;20700;-67
2022/03/26 01:02:37;;;;;;;31.17;21.20;;;;;;;10.66;42.70;99917.69;4143196;28;20229;-67
2022/03/26 01:04:39;;;;;;;31.73;20.40;;;;;;;10.96;42.37;99902.28;4139753;28;20261;-67
2022/03/26 01:06:41;;;;;;;37.33;20.63;;;;;;;11.01;41.98;99920.44;4139638;28;20237;-67
2022/03/26 01:08:43;;;;;;;30.87;19.97;;;;;;;10.94;41.86;99926.38;4143175;28;20260;-67
2022/03/26 01:10:45;;;;;;;34.77;21.13;;;;;;;10.84;42.14;99930.97;4143189;28;20685;-67
2022/03/26 01:12:47;;;;;;;28.73;20.43;;;;;;;10.90;42.25;99914.41;4140773;28;20722;-67
2022/03/26 01:14:50;;;;;;;34.93;21.53;;;;;;;10.98;42.09;99906.44;4143038;28;20316;-67
2022/03/26 01:16:51;;;;;;;34.67;20.20;;;;;;;10.62;42.26;99924.31;4142631;28;20268;-66
2022/03/26 01:18:55;;;;;;;34.77;20.43;;;;;;;10.62;42.94;99917.16;4142819;28;20243;-66
2022/03/26 01:20:57;;;;;;;32.07;21.00;;;;;;;10.12;43.31;99919.56;4142055;28;20233;-66
2022/03/26 01:22:59;;;;;;;28.97;19.90;;;;;;;10.16;43.38;99912.97;4142810;28;20256;-66
2022/03/26 01:25:01;;;;;;;32.30;20.43;;;;;;;10.50;42.89;99907.78;4142629;28;20692;-66
2022/03/26 01:27:03;;;;;;;32.53;20.90;;;;;;;10.52;42.73;99908.44;4141812;28;20261;-66
2022/03/26 01:29:04;;;;;;;29.50;20.63;;;;;;;10.75;42.30;99902.63;4142794;28;20232;-66
2022/03/26 01:31:06;;;;;;;29.70;20.53;;;;;;;10.71;42.41;99902.09;4142399;28;20332;-67
2022/03/26 01:33:08;;;;;;;32.90;21.30;;;;;;;10.76;42.23;99912.31;4142072;28;20233;-66
2022/03/26 01:35:10;;;;;;;31.50;19.63;;;;;;;10.59;42.62;99914.81;4135759;28;20292;-66
2022/03/26 01:37:12;;;;;;;30.37;20.57;;;;;;;10.61;42.50;99910.16;4142710;28;20252;-67
2022/03/26 01:39:13;;;;;;;30.67;20.03;;;;;;;10.30;42.55;99932.88;4141858;28;20268;-66
2022/03/26 01:41:17;;;;;;;34.93;20.77;;;;;;;10.33;42.96;99914.78;4142334;28;20261;-66
2022/03/26 01:43:19;;;;;;;29.63;20.07;;;;;;;10.48;42.54;99906.25;4142170;28;20392;-66
2022/03/26 01:45:21;;;;;;;28.97;19.00;;;;;;;10.52;42.81;99900.47;4142043;28;20316;-66
2022/03/26 01:47:22;;;;;;;28.10;18.57;;;;;;;10.50;42.46;99913.09;4140367;28;20689;-66
2022/03/26 01:49:24;;;;;;;27.63;18.10;;;;;;;10.27;42.89;99911.91;4142649;28;20265;-66
2022/03/26 01:51:26;;;;;;;31.07;18.50;;;;;;;10.47;42.42;99905.41;4142537;28;20265;-66
2022/03/26 01:53:27;;;;;;;29.93;19.20;;;;;;;10.21;43.19;99908.88;4139881;28;20252;-66
2022/03/26 01:55:29;;;;;;;31.63;19.57;;;;;;;10.44;42.62;99903.88;4141536;28;20600;-66
2022/03/26 01:57:31;;;;;;;31.87;18.77;;;;;;;10.25;42.59;99912.06;4149197;28;20256;-66
2022/03/26 01:59:33;;;;;;;31.50;19.40;;;;;;;10.36;42.57;99917.16;4141909;28;20746;-66
2022/03/26 02:01:35;;;;;;;28.43;18.73;;;;;;;10.04;43.29;99905.25;4141872;28;20521;-66
2022/03/26 02:03:38;;;;;;;30.27;18.33;;;;;;;10.12;43.10;99904.47;4141828;28;20292;-66
2022/03/26 02:05:39;;;;;;;30.27;19.13;;;;;;;10.04;42.99;99913.22;4135251;28;20267;-66
2022/03/26 02:07:43;;;;;;;28.50;18.30;;;;;;;10.21;42.74;99908.03;4141874;28;20233;-66
2022/03/26 02:09:45;;;;;;;32.67;19.33;;;;;;;10.38;42.53;99907.19;4142326;28;20240;-66
2022/03/26 02:11:47;;;;;;;29.17;19.13;;;;;;;10.41;42.46;99912.19;4137116;28;20240;-66
2022/03/26 02:13:54;;;;;;;30.40;18.33;;;;;;;10.10;42.64;99914.41;4141465;28;20241;-66
2022/03/26 02:15:56;;;;;;;28.97;18.40;;;;;;;10.12;42.66;99911.59;4142304;28;20990;-66
2022/03/26 02:17:57;;;;;;;29.83;18.90;;;;;;;10.34;42.36;99902.31;4144301;28;20276;-66
2022/03/26 02:20:00;;;;;;;27.03;18.80;;;;;;;10.60;41.81;99908.50;4142843;28;20325;-66
2022/03/26 02:22:02;;;;;;;29.93;17.93;;;;;;;10.29;42.33;99907.25;4141662;28;20229;-66
2022/03/26 02:24:08;;;;;;;28.10;17.00;;;;;;;10.14;42.68;99913.09;4133989;28;20271;-65
2022/03/26 02:26:14;;;;;;;31.33;17.93;;;;;;;9.95;43.05;99902.66;4140860;28;20264;-67
2022/03/26 02:28:16;;;;;;;30.40;17.80;;;;;;;9.94;42.98;99904.47;4141663;28;20324;-66
2022/03/26 02:30:20;;;;;;;29.87;17.33;;;;;;;9.93;42.78;99907.28;4142044;28;20265;-66
2022/03/26 02:32:23;;;;;;;29.80;17.60;;;;;;;9.66;43.32;99903.69;4145065;28;20260;-66
2022/03/26 02:34:26;;;;;;;28.87;17.13;;;;;;;9.73;43.34;99898.59;4140172;28;20299;-66
2022/03/26 02:36:47;;;;;;;27.67;16.73;;;;;;;10.06;42.55;99899.78;4139471;28;20229;-66
2022/03/26 02:38:49;;;;;;;28.10;17.20;;;;;;;9.96;42.53;99891.00;4141053;28;20365;-66
2022/03/26 02:40:51;;;;;;;24.23;17.00;;;;;;;9.87;42.68;99901.59;4141510;28;20264;-66
2022/03/26 02:42:53;;;;;;;24.47;15.73;;;;;;;10.20;42.16;99893.91;4141257;28;20260;-66
2022/03/26 02:44:54;;;;;;;28.20;17.50;;;;;;;10.16;42.24;99891.69;4140959;28;20233;-66
2022/03/26 02:46:56;;;;;;;25.33;16.67;;;;;;;9.80;42.62;99899.66;4141081;28;20230;-66
2022/03/26 02:48:58;;;;;;;28.03;16.87;;;;;;;9.83;42.54;99891.41;4141687;28;20249;-66
2022/03/26 02:51:00;;;;;;;27.13;16.17;;;;;;;9.61;43.00;99895.31;4141501;28;20233;-67
2022/03/26 02:53:01;;;;;;;26.37;16.23;;;;;;;10.03;42.20;99894.75;4141371;28;20225;-66
2022/03/26 02:55:06;;;;;;;23.60;16.33;;;;;;;9.86;42.40;99894.59;4141675;28;20602;-66
2022/03/26 02:57:09;;;;;;;28.83;17.37;;;;;;;10.07;42.07;99888.13;4129239;28;20675;-66
2022/03/26 02:59:10;;;;;;;26.77;16.37;;;;;;;10.04;42.11;99899.06;4141621;28;20698;-66
2022/03/26 03:01:13;;;;;;;25.10;16.37;;;;;;;10.14;41.92;99897.16;4139857;28;20720;-66
2022/03/26 03:03:15;;;;;;;25.70;16.90;;;;;;;9.78;42.47;99899.81;4139782;28;20268;-66
2022/03/26 03:05:17;;;;;;;25.43;15.77;;;;;;;9.92;42.29;99892.31;4127150;28;20267;-66
2022/03/26 03:07:18;;;;;;;25.03;16.07;;;;;;;9.87;42.33;99890.97;4141019;28;20261;-66
2022/03/26 03:09:20;;;;;;;27.27;15.43;;;;;;;9.66;42.53;99899.19;4141509;28;20317;-66
2022/03/26 03:11:22;;;;;;;25.17;15.60;;;;;;;9.76;42.16;99908.94;4140598;28;20618;-66
2022/03/26 03:13:25;;;;;;;26.03;15.03;;;;;;;9.50;42.92;99897.19;4141346;28;20234;-66
2022/03/26 03:15:27;;;;;;;26.70;15.80;;;;;;;9.37;43.17;99898.47;4141386;28;20230;-66
2022/03/26 03:17:28;;;;;;;24.17;15.47;;;;;;;9.52;42.67;99905.00;4141368;28;20332;-66
2022/03/26 03:19:30;;;;;;;24.57;16.03;;;;;;;9.47;42.75;99904.59;4141083;28;20273;-66
2022/03/26 03:21:32;;;;;;;24.23;15.50;;;;;;;9.54;42.48;99899.50;4141224;28;20310;-66
2022/03/26 03:23:34;;;;;;;27.50;16.07;;;;;;;9.71;42.32;99900.59;4141422;28;20265;-66
2022/03/26 03:25:36;;;;;;;24.77;15.57;;;;;;;9.60;42.22;99907.75;4140304;28;20242;-66
2022/03/26 03:27:38;;;;;;;28.00;15.30;;;;;;;9.52;42.83;99897.84;4141037;28;20312;-66
2022/03/26 03:29:40;;;;;;;24.13;14.63;;;;;;;9.51;42.53;99900.66;4141601;28;20727;-66
2022/03/26 03:31:47;;;;;;;27.00;15.63;;;;;;;9.58;42.59;99892.94;4140673;28;20451;-66
2022/03/26 03:33:48;;;;;;;21.50;14.93;;;;;;;9.51;42.59;99901.47;4141507;28;20231;-66
2022/03/26 03:35:50;;;;;;;26.87;16.10;;;;;;;9.41;42.81;99887.44;4134214;28;20475;-66
2022/03/26 03:37:53;;;;;;;29.73;14.90;;;;;;;9.20;43.05;99897.44;4141070;28;20253;-66
2022/03/26 03:39:54;;;;;;;25.27;15.30;;;;;;;9.43;42.75;99898.72;4139554;28;20289;-66
2022/03/26 03:41:56;;;;;;;25.23;15.77;;;;;;;9.39;42.85;99884.09;4140305;28;20256;-66
2022/03/26 03:44:02;;;;;;;27.87;15.93;;;;;;;9.35;42.89;99890.66;4143141;28;20339;-66
2022/03/26 03:46:04;;;;;;;25.27;15.53;;;;;;;9.09;43.22;99886.03;4152037;28;20267;-65
2022/03/26 03:48:05;;;;;;;22.73;14.17;;;;;;;9.03;43.27;99909.66;4144613;28;20253;-66
2022/03/26 03:50:08;;;;;;;25.27;15.43;;;;;;;9.13;43.00;99892.75;4144409;28;20623;-66
2022/03/26 03:52:09;;;;;;;24.40;15.60;;;;;;;8.81;43.62;99884.34;4143607;28;20309;-66
2022/03/26 03:54:11;;;;;;;21.13;15.10;;;;;;;8.91;43.54;99882.47;4142493;28;20229;-67
2022/03/26 03:56:13;;;;;;;23.63;15.57;;;;;;;8.96;43.71;99885.53;4143536;28;20326;-66
2022/03/26 03:58:15;;;;;;;23.67;14.50;;;;;;;9.17;43.17;99879.19;4143296;28;20320;-66
2022/03/26 04:00:17;;;;;;;22.47;13.90;;;;;;;9.04;43.16;99883.00;4144571;28;20710;-66
2022/03/26 04:02:19;;;;;;;24.07;14.83;;;;;;;9.18;42.76;99886.16;4143933;28;20262;-66
2022/03/26 04:04:20;;;;;;;26.33;14.67;;;;;;;8.80;43.23;99902.06;4140433;28;20286;-66
2022/03/26 04:06:22;;;;;;;25.73;14.83;;;;;;;8.69;43.66;99897.75;4139784;28;20246;-66
2022/03/26 04:08:24;;;;;;;23.77;14.63;;;;;;;8.83;43.50;99879.72;4143660;28;20324;-66
2022/03/26 04:10:25;;;;;;;22.17;14.93;;;;;;;8.99;43.24;99890.56;4143908;28;20751;-66
2022/03/26 04:12:32;;;;;;;23.33;15.50;;;;;;;8.70;43.82;99878.22;4143334;28;20656;-66
2022/03/26 04:14:35;;;;;;;24.17;14.03;;;;;;;8.95;43.47;99878.56;4143910;28;20508;-66
2022/03/26 04:16:37;;;;;;;24.90;14.80;;;;;;;9.00;43.26;99881.63;4143921;28;20672;-66
2022/03/26 04:18:39;;;;;;;24.03;14.90;;;;;;;9.07;42.94;99874.75;4143403;28;20614;-66
2022/03/26 04:20:40;;;;;;;25.13;15.07;;;;;;;8.78;43.37;99874.88;4142678;28;20252;-66
2022/03/26 04:22:42;;;;;;;25.47;15.30;;;;;;;8.75;43.63;99883.94;4143865;28;20221;-66
2022/03/26 04:24:44;;;;;;;24.67;15.30;;;;;;;8.90;43.46;99873.69;4134570;28;20276;-66
2022/03/26 04:26:45;;;;;;;25.97;15.07;;;;;;;8.76;42.90;99896.22;4142402;28;20232;-66
2022/03/26 04:28:47;;;;;;;29.43;15.13;;;;;;;8.88;43.36;99885.41;4137077;28;20316;-66
2022/03/26 04:30:49;;;;;;;22.87;14.93;;;;;;;9.01;43.22;99872.66;4143023;28;20264;-66
2022/03/26 04:32:50;;;;;;;25.93;15.67;;;;;;;8.67;43.78;99878.50;4143103;28;20268;-66
2022/03/26 04:34:52;;;;;;;25.87;15.57;;;;;;;8.72;43.63;99880.72;4138963;28;20273;-66
2022/03/26 04:36:54;;;;;;;26.97;15.60;;;;;;;8.47;44.15;99879.53;4142179;28;20493;-66
2022/03/26 04:38:59;;;;;;;23.93;14.17;;;;;;;8.34;44.12;99879.81;4142949;28;20252;-65
2022/03/26 04:41:01;;;;;;;23.57;14.60;;;;;;;8.17;44.68;99879.53;4143140;28;20270;-66
2022/03/26 04:43:03;;;;;;;31.33;14.40;;;;;;;8.23;44.74;99883.44;4145495;28;20260;-66
2022/03/26 04:45:07;;;;;;;24.47;13.33;;;;;;;8.46;44.44;99880.50;4146705;28;20318;-66
2022/03/26 04:47:09;;;;;;;22.97;14.53;;;;;;;8.40;44.37;99884.56;4143624;28;20229;-66
2022/03/26 04:49:10;;;;;;;26.53;14.70;;;;;;;8.38;44.45;99870.63;4143025;28;20545;-66
2022/03/26 04:51:13;;;;;;;24.93;15.00;;;;;;;8.42;44.66;99869.34;4141825;28;20647;-66
2022/03/26 04:53:15;;;;;;;27.50;15.40;;;;;;;8.15;44.75;99878.00;4143406;28;20289;-66
2022/03/26 04:55:18;;;;;;;29.27;15.60;;;;;;;8.18;45.15;99869.78;4143272;28;20264;-66
2022/03/26 04:57:20;;;;;;;25.53;15.73;;;;;;;7.96;44.79;99889.44;4142281;28;20752;-66
2022/03/26 04:59:22;;;;;;;23.40;14.63;;;;;;;8.31;44.71;99885.38;4143436;28;20248;-66
2022/03/26 05:01:23;;;;;;;24.67;14.20;;;;;;;8.45;44.25;99892.09;4141455;28;20272;-66
2022/03/26 05:03:25;;;;;;;25.67;15.03;;;;;;;8.06;45.15;99892.09;4141693;28;20713;-66
2022/03/26 05:05:27;;;;;;;26.73;14.83;;;;;;;8.08;44.81;99887.47;4137249;28;20294;-66
2022/03/26 05:07:47;;;;;;;24.23;14.63;;;;;;;8.07;45.06;99885.78;4142982;28;20271;-66
2022/03/26 05:09:49;;;;;;;23.80;14.30;;;;;;;8.36;44.69;99875.25;4142433;28;20263;-66
2022/03/26 05:11:51;;;;;;;21.20;15.10;;;;;;;8.14;44.89;99897.53;4142758;28;20272;-66
2022/03/26 05:13:52;;;;;;;29.57;14.87;;;;;;;7.96;45.18;99898.19;4142668;28;20787;-66
2022/03/26 05:15:54;;;;;;;24.83;14.23;;;;;;;7.92;45.38;99899.47;4142781;28;20695;-66
2022/03/26 05:18:00;;;;;;;27.73;15.63;;;;;;;7.63;45.56;99908.19;4142250;28;20625;-66
2022/03/26 05:20:03;;;;;;;27.30;13.83;;;;;;;7.82;45.70;99902.09;4142960;28;20324;-66
2022/03/26 05:22:05;;;;;;;29.83;15.67;;;;;;;7.82;45.53;99903.91;4142466;28;20253;-66
2022/03/26 05:24:07;;;;;;;27.03;15.13;;;;;;;7.62;45.80;99901.22;4142084;28;20264;-66
2022/03/26 05:26:08;;;;;;;27.03;15.10;;;;;;;7.60;46.04;99897.06;4142640;28;20690;-65
2022/03/26 05:28:10;;;;;;;25.00;14.47;;;;;;;7.73;46.11;99895.00;4142973;28;20317;-65
2022/03/26 05:30:12;;;;;;;21.93;14.50;;;;;;;7.41;46.70;99901.31;4142933;28;20340;-66
2022/03/26 05:32:15;;;;;;;24.40;14.37;;;;;;;7.33;46.94;99890.56;4142588;28;20284;-66
2022/03/26 05:34:17;;;;;;;24.63;13.90;;;;;;;7.88;45.80;99890.09;4141728;28;20326;-67
2022/03/26 05:36:18;;;;;;;22.13;13.93;;;;;;;7.52;46.71;99897.72;4136348;28;20249;-66
2022/03/26 05:38:20;;;;;;;21.27;14.37;;;;;;;7.70;46.17;99902.34;4142787;28;20672;-66
2022/03/26 05:40:22;;;;;;;22.23;14.97;;;;;;;7.90;45.82;99903.22;4142580;28;20385;-67
2022/03/26 05:42:24;;;;;;;25.70;15.17;;;;;;;7.68;46.06;99915.72;4142569;28;20291;-64
2022/03/26 05:44:26;;;;;;;25.83;15.30;;;;;;;7.45;46.66;99918.59;4141336;28;20317;-67
2022/03/26 05:46:27;;;;;;;25.37;14.77;;;;;;;7.55;46.73;99907.22;4142121;28;20240;-65
2022/03/26 05:48:29;;;;;;;26.47;15.40;;;;;;;7.69;46.74;99906.81;4142751;28;20233;-66
2022/03/26 05:50:32;;;;;;;26.67;14.97;;;;;;;7.60;46.54;99924.34;4141923;28;20321;-67
2022/03/26 05:52:33;;;;;;;27.47;14.77;;;;;;;7.74;46.26;99912.53;4141181;28;20259;-65
2022/03/26 05:54:35;;;;;;;29.87;16.50;;;;;;;7.55;46.68;99928.38;4142071;28;20319;-66
2022/03/26 05:56:37;;;;;;;24.57;14.50;;;;;;;7.69;46.79;99917.41;4141800;28;20256;-66
2022/03/26 05:58:39;;;;;;;24.30;15.37;;;;;;;7.91;46.16;99926.91;4142907;28;20268;-66
2022/03/26 06:00:41;;;;;;;24.47;14.47;;;;;;;8.09;45.75;99931.53;4142441;28;20244;-66
2022/03/26 06:02:43;;;;;;;28.03;15.27;;;;;;;7.96;46.65;99929.97;4142157;28;20225;-65
2022/03/26 06:04:45;;;;;;;25.13;15.33;;;;;;;7.83;46.80;99932.03;4138613;28;20324;-66
2022/03/26 06:06:47;;;;;;;25.50;15.17;;;;;;;8.11;46.35;99927.75;4142321;28;20264;-66
2022/03/26 06:08:49;;;;;;;27.53;15.07;;;;;;;8.11;46.25;99943.66;4139950;28;20725;-67
2022/03/26 06:10:51;;;;;;;25.17;15.73;;;;;;;8.14;46.49;99934.63;4142321;28;20619;-65
2022/03/26 06:12:52;;;;;;;30.27;16.23;;;;;;;8.00;46.59;99935.81;4142131;28;20261;-65
2022/03/26 06:14:54;;;;;;;26.53;15.53;;;;;;;7.94;46.66;99953.13;4142662;28;20326;-66
2022/03/26 06:16:56;;;;;;;24.80;15.53;;;;;;;8.02;46.93;99944.50;4139951;28;20257;-65
2022/03/26 06:18:58;;;;;;;25.50;15.20;;;;;;;8.15;46.82;99945.06;4136663;28;20657;-65
2022/03/26 06:21:05;;;;;;;26.87;16.20;;;;;;;7.96;47.05;99958.28;4137850;28;20232;-67
2022/03/26 06:23:07;;;;;;;24.47;14.97;;;;;;;8.23;46.51;99951.47;4140107;28;20245;-66
2022/03/26 06:25:09;;;;;;;30.07;16.53;;;;;;;7.94;47.21;99954.94;4132898;28;20280;-67
2022/03/26 06:27:11;;;;;;;24.83;16.13;;;;;;;8.22;46.75;99963.88;4148810;28;20583;-66
2022/03/26 06:29:12;;;;;;;26.07;15.57;;;;;;;8.23;46.78;99960.25;4142176;28;20319;-66
2022/03/26 06:31:14;;;;;;;24.43;15.00;;;;;;;7.98;46.96;99974.84;4142015;28;20261;-66
2022/03/26 06:33:16;;;;;;;22.67;14.50;;;;;;;7.94;47.32;99974.28;4141705;28;20649;-67
2022/03/26 06:35:18;;;;;;;25.80;15.13;;;;;;;8.28;46.54;99968.63;4135526;28;20266;-66
2022/03/26 06:37:21;;;;;;;28.80;15.33;;;;;;;8.27;47.07;99974.91;4140907;28;20257;-64
2022/03/26 06:39:23;;;;;;;27.57;15.77;;;;;;;8.17;47.13;99979.34;4142092;28;20576;-66
2022/03/26 06:41:24;;;;;;;25.67;14.73;;;;;;;8.56;46.76;99968.81;4141539;28;20669;-66
2022/03/26 06:43:26;;;;;;;23.27;14.90;;;;;;;7.92;47.45;99996.56;4143358;28;20249;-67
2022/03/26 06:45:27;;;;;;;27.77;15.93;;;;;;;8.45;47.02;99964.47;4149829;28;20537;-68
2022/03/26 06:47:31;;;;;;;22.90;15.20;;;;;;;8.58;46.32;99972.16;4141922;28;20644;-65
2022/03/26 06:49:32;;;;;;;25.87;16.47;;;;;;;8.42;47.13;99978.00;4141446;28;20712;-67
2022/03/26 06:51:36;;;;;;;29.33;15.47;;;;;;;8.20;47.53;99995.81;4141673;28;20260;-65
2022/03/26 06:53:37;;;;;;;24.10;15.70;;;;;;;8.67;46.62;99971.28;4141756;28;20760;-65
2022/03/26 06:55:39;;;;;;;27.13;15.47;;;;;;;8.68;46.37;99986.22;4141159;28;20256;-66
2022/03/26 06:57:44;;;;;;;25.80;15.20;;;;;;;8.77;46.38;99976.59;4140951;28;20637;-65
2022/03/26 06:59:45;;;;;;;27.07;14.93;;;;;;;8.35;47.47;99993.59;4141996;28;20280;-65
2022/03/26 07:01:47;;;;;;;23.53;13.80;;;;;;;8.73;46.57;99986.63;4146596;28;20260;-65
2022/03/26 07:03:49;;;;;;;28.43;15.53;;;;;;;8.89;46.55;99990.53;4157268;28;20279;-65
2022/03/26 07:05:51;;;;;;;23.87;15.63;;;;;;;9.09;46.47;99980.72;4137444;28;20277;-68
2022/03/26 07:07:52;;;;;;;27.57;16.27;;;;;;;9.32;46.76;99979.38;4139857;28;20257;-68
2022/03/26 07:09:54;;;;;;;27.00;15.60;;;;;;;9.42;45.61;99979.34;4140404;28;20316;-69
2022/03/26 07:11:56;;;;;;;25.10;15.63;;;;;;;9.70;45.37;99979.38;4140680;28;20738;-66
2022/03/26 07:13:57;;;;;;;25.50;15.53;;;;;;;9.62;45.59;99997.88;4141411;28;20256;-66
2022/03/26 07:15:59;;;;;;;25.37;14.60;;;;;;;9.61;45.61;99993.56;4140861;28;20325;-67
2022/03/26 07:18:00;;;;;;;24.30;15.47;;;;;;;9.55;45.23;100002.91;4140936;28;20267;-67
2022/03/26 07:20:02;;;;;;;24.53;15.73;;;;;;;9.67;44.85;100003.56;4143151;28;20261;-66
2022/03/26 07:22:05;;;;;;;24.27;15.43;;;;;;;9.42;45.37;100003.25;4138064;28;20283;-67
2022/03/26 07:24:07;;;;;;;26.30;15.43;;;;;;;9.46;45.45;100015.22;4144341;28;20710;-67
2022/03/26 07:26:08;;;;;;;26.27;15.33;;;;;;;8.93;46.55;100029.88;4144590;28;20259;-65
2022/03/26 07:28:10;;;;;;;24.37;15.03;;;;;;;9.40;45.38;100021.13;4144997;28;20947;-65
2022/03/26 07:30:12;;;;;;;32.83;15.83;;;;;;;9.36;45.09;100033.00;4144592;28;20964;-65
2022/03/26 07:32:15;;;;;;;25.33;15.70;;;;;;;9.20;46.38;100017.69;4144681;28;20269;-65
2022/03/26 07:34:17;;;;;;;23.87;15.10;;;;;;;9.45;45.66;100016.22;4143307;28;20236;-65
2022/03/26 07:36:19;;;;;;;31.50;16.53;;;;;;;9.78;45.06;100006.03;4140842;28;20323;-65
2022/03/26 07:38:23;;;;;;;28.37;15.57;;;;;;;9.36;45.90;100029.53;4144198;28;20225;-67
2022/03/26 07:40:25;;;;;;;33.37;15.87;;;;;;;9.52;45.79;100019.13;4143090;28;20229;-66
2022/03/26 07:42:27;;;;;;;27.10;17.10;;;;;;;9.85;44.69;100019.56;4142568;28;20229;-67
2022/03/26 07:44:29;;;;;;;29.13;15.50;;;;;;;9.96;45.29;100015.88;4143897;28;20653;-66
2022/03/26 07:46:31;;;;;;;22.77;15.73;;;;;;;10.10;44.99;100020.69;4145067;28;20260;-65
2022/03/26 07:48:32;;;;;;;26.93;15.77;;;;;;;10.18;45.33;100018.13;4145473;28;20653;-65
2022/03/26 07:50:34;;;;;;;25.17;16.37;;;;;;;9.97;44.85;100025.53;4150069;28;20225;-66
2022/03/26 07:52:36;;;;;;;23.33;15.13;;;;;;;10.07;44.88;100021.81;4142237;28;20233;-65
2022/03/26 07:54:38;;;;;;;24.83;15.30;;;;;;;10.35;45.16;100021.78;4144355;28;20260;-66
2022/03/26 07:56:40;;;;;;;24.30;15.57;;;;;;;9.97;44.89;100038.81;4142342;28;20312;-67
2022/03/26 07:58:42;;;;;;;24.43;15.20;;;;;;;9.88;45.10;100036.03;4144451;28;20319;-66
2022/03/26 08:00:43;;;;;;;25.80;16.57;;;;;;;10.39;44.79;100017.00;4144784;28;20248;-66
2022/03/26 08:02:45;;;;;;;29.27;16.77;;;;;;;9.98;45.71;100043.97;4141075;28;20237;-66
2022/03/26 08:04:47;;;;;;;27.27;15.40;;;;;;;10.53;44.87;100020.94;4146072;28;20248;-66
2022/03/26 08:06:48;;;;;;;26.97;16.13;;;;;;;10.45;44.57;100019.06;4143626;28;20256;-66
2022/03/26 08:08:50;;;;;;;24.43;15.57;;;;;;;10.13;44.82;100054.94;4143783;28;20320;-66
2022/03/26 08:10:52;;;;;;;24.70;15.70;;;;;;;10.38;45.05;100028.59;4144342;28;20979;-67
2022/03/26 08:12:53;;;;;;;29.37;15.93;;;;;;;10.25;45.34;100047.59;4149175;28;20372;-67
2022/03/26 08:14:55;;;;;;;25.90;15.20;;;;;;;10.62;44.30;100023.53;4143266;28;20233;-65
2022/03/26 08:16:57;;;;;;;29.43;16.63;;;;;;;10.97;43.51;100013.03;4146471;28;20255;-66
2022/03/26 08:18:59;;;;;;;23.90;15.43;;;;;;;10.70;43.88;100030.75;4149772;28;20256;-67
2022/03/26 08:21:00;;;;;;;24.80;16.77;;;;;;;11.05;43.58;100017.59;4151993;28;20259;-67
2022/03/26 08:23:02;;;;;;;24.00;15.87;;;;;;;10.58;44.56;100054.09;4146560;28;20320;-66
2022/03/26 08:25:04;;;;;;;28.87;16.13;;;;;;;11.10;43.54;100015.28;4144174;28;20237;-68
2022/03/26 08:27:06;;;;;;;26.17;15.60;;;;;;;10.69;44.34;100054.84;4143854;28;20257;-66
2022/03/26 08:29:08;;;;;;;28.57;17.03;;;;;;;11.28;43.24;100021.41;4143261;28;20992;-68
2022/03/26 08:31:10;;;;;;;27.47;16.43;;;;;;;11.11;44.44;100020.47;4142484;28;20743;-68
2022/03/26 08:33:12;;;;;;;28.90;17.43;;;;;;;11.06;44.15;100036.06;4142552;28;20248;-68
2022/03/26 08:35:15;;;;;;;26.83;17.13;;;;;;;11.47;43.98;100011.53;4136456;28;20269;-67
2022/03/26 08:37:16;;;;;;;26.83;15.63;;;;;;;11.26;44.26;100034.03;4143670;28;20405;-67
2022/03/26 08:39:18;;;;;;;25.27;15.73;;;;;;;11.31;43.94;100038.91;4143971;28;20324;-67
2022/03/26 08:41:21;;;;;;;26.23;16.93;;;;;;;10.89;44.64;100061.69;4143936;28;20261;-67
2022/03/26 08:43:23;;;;;;;27.00;15.97;;;;;;;11.28;43.46;100045.34;4140649;28;20332;-66
2022/03/26 08:45:29;;;;;;;27.50;16.83;;;;;;;11.63;43.27;100022.25;4147916;28;20265;-65
2022/03/26 08:47:30;;;;;;;24.33;15.33;;;;;;;12.23;42.39;99999.16;4142101;28;20233;-65
2022/03/26 08:49:33;;;;;;;28.87;16.93;;;;;;;11.89;42.83;100037.38;4141865;28;20329;-67
2022/03/26 08:51:35;;;;;;;25.60;16.40;;;;;;;12.20;43.48;100007.47;4142276;28;20320;-66
2022/03/26 08:53:37;;;;;;;25.03;15.87;;;;;;;11.16;43.93;100065.25;4142269;28;20324;-67
2022/03/26 08:55:39;;;;;;;25.23;16.70;;;;;;;11.98;42.60;100025.75;4141887;28;20316;-67
2022/03/26 08:57:41;;;;;;;27.70;17.63;;;;;;;11.17;43.97;100069.56;4142671;28;20256;-66
2022/03/26 08:59:42;;;;;;;27.83;16.73;;;;;;;12.15;43.27;100025.78;4142446;28;20237;-66
2022/03/26 09:01:44;;;;;;;32.40;16.37;;;;;;;11.68;43.76;100049.25;4142950;28;20697;-67
2022/03/26 09:03:46;;;;;;;28.07;17.10;;;;;;;12.64;42.86;99986.72;4143185;28;20780;-67
2022/03/26 09:05:52;;;;;;;25.70;16.83;;;;;;;11.88;43.05;100059.69;4137233;28;20280;-66
2022/03/26 09:07:55;;;;;;;27.03;17.27;;;;;;;12.51;42.18;99990.88;4141826;28;20725;-67
2022/03/26 09:09:56;;;;;;;26.27;17.30;;;;;;;12.66;42.01;100002.56;4143013;28;20253;-67
2022/03/26 09:11:58;;;;;;;30.97;18.40;;;;;;;11.96;43.20;100050.91;4143374;28;20233;-65
2022/03/26 09:14:00;;;;;;;32.80;16.73;;;;;;;12.47;43.02;100014.34;4142989;28;20320;-66
2022/03/26 09:16:03;;;;;;;29.53;17.87;;;;;;;12.60;41.99;100009.38;4133865;28;20272;-64
2022/03/26 09:18:05;;;;;;;28.93;16.90;;;;;;;12.59;42.32;100006.88;4135434;28;20225;-65
2022/03/26 09:20:08;;;;;;;31.30;17.90;;;;;;;12.61;43.19;100018.22;4142937;28;20743;-66
2022/03/26 09:22:10;;;;;;;27.47;17.57;;;;;;;12.60;42.83;100020.03;4142634;28;20261;-66
2022/03/26 09:24:15;;;;;;;28.77;17.93;;;;;;;12.35;43.52;100039.69;4142728;28;20229;-66